Time;durP1;ratioP1;P1;durP2;ratioP2;P2;SDS_P1;SDS_P2;PMS_P1;PMS_P2;Temp;Humidity;BMP_temperature;BMP_pressure;BME280_temperature;BME280_humidity;BME280_pressure;Samples;Min_cycle;Max_cycle;Signal;HPM_P1;HPM_P2
2023/05/25 00:01:47;;;;;;;12.48;3.90;;;8.10;99.90;;;;;;6164122;23;20021;-84
2023/05/25 00:04:35;;;;;;;13.40;3.55;;;8.20;99.90;;;;;;6185334;23;20052;-84
2023/05/25 00:07:25;;;;;;;9.90;3.40;;;8.30;99.90;;;;;;6185226;23;20025;-85
2023/05/25 00:10:12;;;;;;;11.27;3.83;;;8.30;99.90;;;;;;6183870;23;20033;-84
2023/05/25 00:12:59;;;;;;;14.23;3.63;;;8.40;99.90;;;;;;6181709;23;20460;-84
2023/05/25 00:15:54;;;;;;;18.92;3.92;;;8.40;99.90;;;;;;6184394;23;20040;-85
2023/05/25 00:18:42;;;;;;;15.55;4.18;;;8.40;99.90;;;;;;6184475;23;20111;-85
2023/05/25 00:21:54;;;;;;;14.38;3.85;;;8.30;99.90;;;;;;6169039;23;20013;-85
2023/05/25 00:24:41;;;;;;;12.10;4.22;;;8.30;99.90;;;;;;6189537;23;20032;-85
2023/05/25 00:27:31;;;;;;;17.75;3.97;;;8.30;99.90;;;;;;6184014;23;20025;-84
2023/05/25 00:30:19;;;;;;;15.43;4.45;;;8.20;99.90;;;;;;6152499;23;20040;-84
2023/05/25 00:33:07;;;;;;;11.82;3.83;;;8.20;99.90;;;;;;6155246;23;20025;-85
2023/05/25 00:36:15;;;;;;;12.00;3.83;;;8.20;99.90;;;;;;6156690;23;20036;-85
2023/05/25 00:39:05;;;;;;;12.55;4.00;;;8.20;99.90;;;;;;6155106;23;20313;-84
2023/05/25 00:41:53;;;;;;;13.55;3.78;;;8.10;99.90;;;;;;6154904;23;20772;-85
2023/05/25 00:44:47;;;;;;;13.98;4.57;;;8.10;99.90;;;;;;6155422;23;20370;-85
2023/05/25 00:47:41;;;;;;;11.23;4.45;;;8.10;99.90;;;;;;6154364;23;20044;-86
2023/05/25 00:50:42;;;;;;;11.25;3.85;;;8.00;99.90;;;;;;6155069;23;20033;-85
2023/05/25 00:53:32;;;;;;;7.57;3.20;;;8.00;99.90;;;;;;6154137;23;20345;-84
2023/05/25 00:56:27;;;;;;;10.60;3.70;;;8.10;99.90;;;;;;6156634;23;20468;-85
2023/05/25 00:59:35;;;;;;;15.13;3.90;;;8.10;99.90;;;;;;6155818;23;20033;-84
2023/05/25 01:02:24;;;;;;;15.23;4.22;;;8.20;99.90;;;;;;6156525;23;20030;-84
2023/05/25 01:05:16;;;;;;;13.20;4.32;;;8.30;99.90;;;;;;6154361;23;20100;-85
2023/05/25 01:08:06;;;;;;;13.98;4.57;;;8.30;99.90;;;;;;6154063;23;20040;-84
2023/05/25 01:10:59;;;;;;;11.80;4.10;;;8.30;99.90;;;;;;6153358;23;20112;-84
2023/05/25 01:13:48;;;;;;;17.10;4.10;;;8.30;99.90;;;;;;6154593;23;20128;-84
2023/05/25 01:16:36;;;;;;;9.48;4.20;;;8.30;99.90;;;;;;6154829;23;20025;-84
2023/05/25 01:19:24;;;;;;;12.82;4.57;;;8.10;99.90;;;;;;6154632;23;20040;-84
2023/05/25 01:22:27;;;;;;;13.93;4.20;;;8.10;99.90;;;;;;6154130;23;20022;-84
2023/05/25 01:25:22;;;;;;;14.15;4.47;;;8.00;99.90;;;;;;6155860;23;20409;-84
2023/05/25 01:28:22;;;;;;;14.13;3.88;;;7.90;99.90;;;;;;6153394;23;20105;-84
2023/05/25 01:31:10;;;;;;;18.33;4.78;;;7.90;99.90;;;;;;6154020;23;20459;-84
2023/05/25 01:33:59;;;;;;;15.60;4.10;;;7.90;99.90;;;;;;6153257;23;20433;-85
2023/05/25 01:36:47;;;;;;;14.40;4.63;;;7.90;99.90;;;;;;6152741;23;20106;-84
2023/05/25 01:39:37;;;;;;;18.52;4.65;;;7.90;99.90;;;;;;6154089;23;20029;-84
2023/05/25 01:42:25;;;;;;;14.52;4.35;;;7.90;99.90;;;;;;6153176;23;20389;-84
2023/05/25 01:45:15;;;;;;;14.35;4.15;;;7.80;99.90;;;;;;6153218;23;20048;-84
2023/05/25 01:48:25;;;;;;;18.08;5.28;;;7.80;99.90;;;;;;6154236;23;20044;-85
2023/05/25 01:51:41;;;;;;;17.83;4.90;;;7.70;99.90;;;;;;6154506;23;20032;-84
2023/05/25 01:54:39;;;;;;;20.58;4.88;;;7.70;99.90;;;;;;6108026;23;20038;-83
2023/05/25 01:57:28;;;;;;;18.77;4.78;;;7.70;99.90;;;;;;6153250;23;20041;-85
2023/05/25 02:00:18;;;;;;;15.73;4.90;;;7.70;99.90;;;;;;6153228;23;20111;-85
2023/05/25 02:03:09;;;;;;;18.25;4.78;;;7.70;99.90;;;;;;6153812;23;20437;-85
2023/05/25 02:05:57;;;;;;;17.70;5.10;;;7.70;99.90;;;;;;6153581;23;20036;-84
2023/05/25 02:08:46;;;;;;;15.90;4.68;;;7.70;99.90;;;;;;6153528;23;20037;-85
2023/05/25 02:11:34;;;;;;;14.77;4.32;;;7.80;99.90;;;;;;6154743;23;20337;-84
2023/05/25 02:14:21;;;;;;;13.98;4.90;;;7.80;99.90;;;;;;6154113;23;20345;-85
2023/05/25 02:17:11;;;;;;;18.20;5.40;;;7.80;99.90;;;;;;6154033;23;20036;-84
2023/05/25 02:19:58;;;;;;;15.80;4.85;;;7.80;99.90;;;;;;6154407;23;20515;-85
2023/05/25 02:22:48;;;;;;;12.15;4.57;;;7.70;99.90;;;;;;6154201;23;20029;-84
2023/05/25 02:25:36;;;;;;;20.38;5.82;;;7.60;99.90;;;;;;6156561;23;20108;-84
2023/05/25 02:28:23;;;;;;;22.80;5.45;;;7.60;99.90;;;;;;6153851;23;20402;-85
2023/05/25 02:31:11;;;;;;;16.60;4.93;;;7.60;99.90;;;;;;6183787;23;20103;-86
2023/05/25 02:33:58;;;;;;;17.75;5.22;;;7.60;99.90;;;;;;6162273;23;20028;-85
2023/05/25 02:36:48;;;;;;;15.85;5.50;;;7.60;99.90;;;;;;6163672;23;20025;-85
2023/05/25 02:39:35;;;;;;;17.77;5.65;;;7.60;99.90;;;;;;6163087;23;20405;-84
2023/05/25 02:42:25;;;;;;;14.85;4.57;;;7.50;99.90;;;;;;6183512;23;20049;-85
2023/05/25 02:45:12;;;;;;;12.52;5.10;;;7.30;99.90;;;;;;6185270;23;20025;-85
2023/05/25 02:48:00;;;;;;;16.55;5.97;;;7.20;99.90;;;;;;6184065;23;20021;-84
2023/05/25 02:50:50;;;;;;;16.88;5.57;;;7.10;1.00;;;;;;6163540;23;20021;-85
2023/05/25 02:53:37;;;;;;;25.33;6.03;;;7.10;1.00;;;;;;6168338;23;20041;-86
2023/05/25 02:56:27;;;;;;;19.65;6.25;;;7.00;1.00;;;;;;6162418;23;20044;-85
2023/05/25 02:59:14;;;;;;;19.23;6.68;;;6.90;1.00;;;;;;6164523;23;20025;-83
2023/05/25 03:02:01;;;;;;;20.38;6.82;;;6.80;1.00;;;;;;6162714;23;20025;-85
2023/05/25 03:04:52;;;;;;;26.95;6.60;;;6.70;1.00;;;;;;6162736;23;20025;-84
2023/05/25 03:07:40;;;;;;;19.10;6.05;;;6.70;1.00;;;;;;6185011;23;20479;-83
2023/05/25 03:10:30;;;;;;;21.48;6.47;;;6.70;1.00;;;;;;6183041;23;20039;-85
2023/05/25 03:13:20;;;;;;;17.95;6.65;;;6.70;1.00;;;;;;6184358;23;20024;-84
2023/05/25 03:16:07;;;;;;;17.42;6.05;;;6.60;1.00;;;;;;6183131;23;20033;-85
2023/05/25 03:18:55;;;;;;;15.43;6.65;;;6.60;1.00;;;;;;6163794;23;20107;-85
2023/05/25 03:21:42;;;;;;;20.17;6.40;;;6.50;8.30;;;;;;6163392;23;20025;-86
2023/05/25 03:24:29;;;;;;;22.20;6.80;;;6.40;26.50;;;;;;6164397;23;20421;-84
2023/05/25 03:27:16;;;;;;;24.77;6.97;;;6.30;51.90;;;;;;6183005;23;20032;-85
2023/05/25 03:30:05;;;;;;;20.92;6.57;;;6.30;69.20;;;;;;6167689;23;20021;-86
2023/05/25 03:32:52;;;;;;;15.48;7.20;;;6.20;99.90;;;;;;6163720;23;20021;-85
2023/05/25 03:35:42;;;;;;;19.70;7.10;;;6.10;99.90;;;;;;6163330;23;20029;-85
2023/05/25 03:38:36;;;;;;;18.55;6.78;;;6.00;99.90;;;;;;6184404;23;20084;-85
2023/05/25 03:41:24;;;;;;;18.73;7.13;;;6.00;99.90;;;;;;6183024;23;20032;-85
2023/05/25 03:44:14;;;;;;;26.83;7.97;;;6.00;99.90;;;;;;6184094;23;20021;-85
2023/05/25 03:47:01;;;;;;;16.75;7.85;;;6.00;99.90;;;;;;6184969;23;20051;-86
2023/05/25 03:49:48;;;;;;;16.60;8.07;;;6.00;99.90;;;;;;6164055;23;20028;-86
2023/05/25 03:52:36;;;;;;;17.80;7.20;;;6.00;99.90;;;;;;6182727;23;20029;-86
2023/05/25 03:55:23;;;;;;;23.42;7.72;;;6.00;99.90;;;;;;6183212;23;20040;-86
2023/05/25 03:58:10;;;;;;;28.75;7.93;;;6.00;99.90;;;;;;6162515;23;20029;-85
2023/05/25 04:01:16;;;;;;;21.55;7.20;;;6.00;99.90;;;;;;6183594;23;20028;-85
2023/05/25 04:04:11;;;;;;;26.70;7.82;;;6.00;99.90;;;;;;6183929;23;20025;-85
2023/05/25 04:07:06;;;;;;;22.70;8.63;;;6.10;99.90;;;;;;6165315;23;20017;-85
2023/05/25 04:09:53;;;;;;;22.05;8.15;;;6.20;1.00;;;;;;6183949;23;20029;-86
2023/05/25 04:12:40;;;;;;;17.77;7.40;;;6.20;1.00;;;;;;6162824;23;20079;-85
2023/05/25 04:15:27;;;;;;;22.30;8.05;;;6.30;1.00;;;;;;6163600;23;20438;-85
2023/05/25 04:18:15;;;;;;;17.40;6.90;;;6.40;1.00;;;;;;6184543;23;20056;-85
2023/05/25 04:21:02;;;;;;;21.75;7.18;;;6.60;1.00;;;;;;6163673;23;20032;-84
2023/05/25 04:23:49;;;;;;;17.63;7.15;;;6.80;1.00;;;;;;6185406;23;20421;-84
2023/05/25 04:26:38;;;;;;;18.73;7.65;;;7.00;1.00;;;;;;6182483;23;20036;-83
2023/05/25 04:29:25;;;;;;;18.70;6.57;;;7.20;99.90;;;;;;6183254;23;20025;-84
2023/05/25 04:32:16;;;;;;;20.90;6.55;;;7.40;99.90;;;;;;6183084;23;20029;-85
2023/05/25 04:35:04;;;;;;;22.15;7.30;;;7.50;99.90;;;;;;6162627;23;20396;-85
2023/05/25 04:37:55;;;;;;;16.33;6.55;;;7.50;99.90;;;;;;6185023;23;20514;-86
2023/05/25 04:40:45;;;;;;;19.40;6.53;;;7.50;99.90;;;;;;6162512;23;20021;-86
2023/05/25 04:43:32;;;;;;;18.55;6.72;;;7.50;99.90;;;;;;6184668;23;20025;-87
2023/05/25 04:46:19;;;;;;;17.73;7.40;;;7.50;99.90;;;;;;6161018;23;20100;-86
2023/05/25 04:49:09;;;;;;;24.33;7.60;;;7.60;99.90;;;;;;6163070;23;20021;-85
2023/05/25 04:51:59;;;;;;;14.40;6.93;;;7.60;99.90;;;;;;6181579;23;20050;-88
2023/05/25 04:54:46;;;;;;;19.70;6.85;;;7.60;99.90;;;;;;6162514;23;20321;-86
2023/05/25 04:57:33;;;;;;;18.75;6.78;;;7.70;99.90;;;;;;6182364;23;20029;-86
2023/05/25 05:00:21;;;;;;;23.77;6.85;;;7.80;99.90;;;;;;6183770;23;20029;-91
2023/05/25 05:03:08;;;;;;;21.52;6.65;;;7.80;99.90;;;;;;6188174;23;20069;-87
2023/05/25 05:05:56;;;;;;;23.83;7.28;;;7.90;99.90;;;;;;6161072;23;20028;-88
2023/05/25 05:08:43;;;;;;;18.80;7.25;;;8.00;99.90;;;;;;6182294;23;20025;-88
2023/05/25 05:11:30;;;;;;;21.20;9.50;;;8.10;99.90;;;;;;6182608;23;20033;-88
2023/05/25 05:14:18;;;;;;;23.52;7.13;;;8.20;99.30;;;;;;6181951;23;20035;-89
2023/05/25 05:17:05;;;;;;;15.82;6.80;;;8.20;77.80;;;;;;6182858;23;20043;-88
2023/05/25 05:19:53;;;;;;;20.27;6.80;;;8.30;59.60;;;;;;6186225;23;20429;-88
2023/05/25 05:22:42;;;;;;;18.75;7.70;;;8.40;46.40;;;;;;6163670;23;20033;-86
2023/05/25 05:25:30;;;;;;;18.08;6.57;;;8.50;29.60;;;;;;6184690;23;20478;-87
2023/05/25 05:28:17;;;;;;;17.40;6.68;;;8.60;9.20;;;;;;6183391;23;20021;-87
2023/05/25 05:31:05;;;;;;;21.88;8.15;;;8.80;1.00;;;;;;6161063;23;20029;-87
2023/05/25 05:33:52;;;;;;;23.85;7.35;;;8.80;1.00;;;;;;6161653;23;20111;-88
2023/05/25 05:36:40;;;;;;;19.92;7.03;;;9.00;1.00;;;;;;6180483;23;20029;-86
2023/05/25 05:39:43;;;;;;;14.18;6.32;;;9.00;1.00;;;;;;6183641;23;20025;-86
2023/05/25 05:42:30;;;;;;;14.77;6.13;;;9.10;1.00;;;;;;6181099;23;20033;-86
2023/05/25 05:45:18;;;;;;;16.27;6.30;;;9.20;1.00;;;;;;6183627;23;20047;-87
2023/05/25 05:48:08;;;;;;;16.20;7.65;;;9.30;1.00;;;;;;6162305;23;20101;-87
2023/05/25 05:50:56;;;;;;;20.00;7.20;;;9.40;1.00;;;;;;6184952;23;20397;-88
2023/05/25 05:53:43;;;;;;;20.88;6.68;;;9.60;1.00;;;;;;6183046;23;20048;-87
2023/05/25 05:56:30;;;;;;;18.50;6.78;;;9.70;1.00;;;;;;6162748;23;20028;-87
2023/05/25 05:59:20;;;;;;;20.90;6.88;;;9.80;1.00;;;;;;6186022;23;20025;-85
2023/05/25 06:02:07;;;;;;;19.30;7.72;;;9.90;1.00;;;;;;6186360;23;20032;-87
2023/05/25 06:04:55;;;;;;;21.70;7.35;;;10.00;1.00;;;;;;6184170;23;20025;-85
2023/05/25 06:07:42;;;;;;;21.85;7.75;;;10.10;1.00;;;;;;6187276;23;20028;-87
2023/05/25 06:10:29;;;;;;;19.95;6.63;;;10.30;1.00;;;;;;6186227;23;20029;-89
2023/05/25 06:13:19;;;;;;;21.42;7.65;;;10.50;1.00;;;;;;6185673;23;20029;-86
2023/05/25 06:16:06;;;;;;;18.48;6.88;;;10.50;99.90;;;;;;6188507;23;20028;-88
2023/05/25 06:18:56;;;;;;;17.70;7.50;;;10.70;99.90;;;;;;6185424;23;20298;-86
2023/05/25 06:21:47;;;;;;;19.67;7.82;;;10.80;99.90;;;;;;6187566;23;20309;-86
2023/05/25 06:24:36;;;;;;;18.35;6.82;;;11.20;99.90;;;;;;6184867;23;20041;-87
2023/05/25 06:27:23;;;;;;;21.33;7.53;;;11.60;99.90;;;;;;6184404;23;20033;-87
2023/05/25 06:30:11;;;;;;;15.85;6.65;;;12.00;99.90;;;;;;6185021;23;20033;-86
2023/05/25 06:32:58;;;;;;;22.05;6.72;;;12.40;99.90;;;;;;6163381;23;20297;-89
2023/05/25 06:35:45;;;;;;;15.50;7.07;;;12.60;99.90;;;;;;6164216;23;20021;-90
2023/05/25 06:38:35;;;;;;;18.42;6.22;;;12.50;99.90;;;;;;6184024;23;20029;-87
2023/05/25 06:41:29;;;;;;;18.98;6.78;;;12.50;99.90;;;;;;6184539;23;20021;-88
2023/05/25 06:44:22;;;;;;;18.25;6.38;;;12.60;99.90;;;;;;6185183;23;20032;-86
2023/05/25 06:47:11;;;;;;;14.18;5.50;;;12.60;99.90;;;;;;6184943;23;20025;-86
2023/05/25 06:49:59;;;;;;;20.05;6.78;;;12.80;99.90;;;;;;6185770;23;20425;-85
2023/05/25 06:52:50;;;;;;;13.75;6.60;;;12.90;99.90;;;;;;6185358;23;20120;-87
2023/05/25 06:55:37;;;;;;;19.63;7.38;;;13.20;99.90;;;;;;6163770;23;20036;-91
2023/05/25 06:58:26;;;;;;;19.55;6.80;;;13.50;99.90;;;;;;6187097;23;20029;-85
2023/05/25 07:01:14;;;;;;;22.05;7.15;;;14.00;99.90;;;;;;6161321;23;20021;-89
2023/05/25 07:04:03;;;;;;;23.08;7.30;;;14.40;99.90;;;;;;6185153;23;20033;-86
2023/05/25 07:06:53;;;;;;;15.57;6.97;;;14.20;99.90;;;;;;6185006;23;20301;-86
2023/05/25 07:09:40;;;;;;;15.65;7.22;;;14.20;99.90;;;;;;6185637;23;20319;-84
2023/05/25 07:12:27;;;;;;;18.88;6.95;;;14.20;99.90;;;;;;6184443;23;20112;-85
2023/05/25 07:15:15;;;;;;;18.13;7.38;;;14.10;99.90;;;;;;6185471;23;20029;-90
2023/05/25 07:18:03;;;;;;;21.10;7.38;;;14.10;99.90;;;;;;6164152;23;20024;-88
2023/05/25 07:20:51;;;;;;;22.33;7.82;;;13.90;99.90;;;;;;6184098;23;20428;-86
2023/05/25 07:23:41;;;;;;;21.90;7.32;;;13.90;99.90;;;;;;6183516;23;20024;-86
2023/05/25 07:26:32;;;;;;;17.15;7.00;;;14.20;99.90;;;;;;6184820;23;20451;-86
2023/05/25 07:29:20;;;;;;;25.98;8.80;;;14.00;99.90;;;;;;6185363;23;20316;-88
2023/05/25 07:32:07;;;;;;;21.88;8.20;;;13.70;99.90;;;;;;6186003;23;20039;-88
2023/05/25 07:34:55;;;;;;;15.60;7.45;;;13.60;99.90;;;;;;6184541;23;20124;-89
2023/05/25 07:37:43;;;;;;;20.92;7.60;;;13.40;99.90;;;;;;6160152;23;20033;-91
2023/05/25 07:40:30;;;;;;;16.83;8.35;;;13.20;99.90;;;;;;6165795;23;20031;-88
2023/05/25 07:43:17;;;;;;;22.50;8.60;;;13.20;99.90;;;;;;6164340;23;20100;-88
2023/05/25 07:46:05;;;;;;;14.93;8.07;;;13.30;99.90;;;;;;6163218;23;20428;-91
2023/05/25 07:48:53;;;;;;;19.58;7.43;;;13.60;99.90;;;;;;6184632;23;20302;-84
2023/05/25 07:51:43;;;;;;;19.42;6.82;;;13.80;99.90;;;;;;6186085;23;20024;-88
2023/05/25 07:54:33;;;;;;;16.48;7.53;;;14.00;99.90;;;;;;6184611;23;20036;-87
2023/05/25 07:57:20;;;;;;;21.25;6.75;;;14.30;99.90;;;;;;6185998;23;20028;-88
2023/05/25 08:00:11;;;;;;;17.88;6.47;;;15.10;99.90;;;;;;6184916;23;20024;-88
2023/05/25 08:02:58;;;;;;;18.92;6.55;;;16.00;99.90;;;;;;6184724;23;20040;-87
2023/05/25 08:05:46;;;;;;;17.55;6.32;;;16.90;99.90;;;;;;6186026;23;20324;-89
2023/05/25 08:08:35;;;;;;;16.60;6.03;;;17.30;99.90;;;;;;6184867;23;20025;-87
2023/05/25 08:11:26;;;;;;;15.90;6.40;;;17.60;99.90;;;;;;6186223;23;20037;-87
2023/05/25 08:14:15;;;;;;;13.07;6.32;;;17.80;99.90;;;;;;6185417;23;20037;-89
2023/05/25 08:17:03;;;;;;;15.30;5.68;;;18.40;99.90;;;;;;6162756;23;20451;-86
2023/05/25 08:19:51;;;;;;;16.27;6.25;;;18.70;90.10;;;;;;6164468;23;20028;-87
2023/05/25 08:22:38;;;;;;;18.33;6.55;;;18.60;80.20;;;;;;6185116;23;20021;-89
2023/05/25 08:25:26;;;;;;;14.70;6.25;;;18.40;74.50;;;;;;6185913;23;20100;-88
2023/05/25 08:28:14;;;;;;;16.63;5.90;;;18.50;72.80;;;;;;6163169;23;20056;-87
2023/05/25 08:31:02;;;;;;;17.80;6.18;;;18.50;59.50;;;;;;6185425;23;20088;-87
2023/05/25 08:33:52;;;;;;;15.88;6.30;;;19.10;78.80;;;;;;6164561;23;20170;-88
2023/05/25 08:36:39;;;;;;;17.38;5.90;;;19.90;64.90;;;;;;6183559;23;20040;-89
2023/05/25 08:39:28;;;;;;;14.85;6.47;;;20.60;52.70;;;;;;6185013;23;20040;-89
2023/05/25 08:42:17;;;;;;;14.48;6.68;;;20.70;36.20;;;;;;6186604;23;20025;-90
2023/05/25 08:45:07;;;;;;;14.30;6.50;;;20.40;29.30;;;;;;6184641;23;20420;-86
2023/05/25 08:48:13;;;;;;;16.63;6.28;;;20.20;25.00;;;;;;6185512;23;20085;-86
2023/05/25 08:51:15;;;;;;;14.73;6.40;;;20.80;26.20;;;;;;6165605;23;20025;-86
2023/05/25 08:54:13;;;;;;;17.25;6.30;;;20.70;23.60;;;;;;6185833;23;20041;-88
2023/05/25 08:57:11;;;;;;;16.02;6.55;;;21.00;22.60;;;;;;6185456;23;20024;-92
2023/05/25 09:00:11;;;;;;;14.85;6.53;;;20.60;17.40;;;;;;6184219;23;20079;-86
2023/05/25 09:03:14;;;;;;;13.40;6.03;;;20.70;22.40;;;;;;6163703;23;20157;-86
2023/05/25 09:06:02;;;;;;;15.10;5.65;;;20.90;18.40;;;;;;6183130;23;20029;-87
2023/05/25 09:08:50;;;;;;;13.02;6.28;;;21.50;19.70;;;;;;6162589;23;20053;-86
2023/05/25 09:11:40;;;;;;;20.75;6.90;;;21.50;11.10;;;;;;6186196;23;20630;-89
2023/05/25 09:14:33;;;;;;;13.02;6.47;;;20.30;6.10;;;;;;6184944;23;20057;-88
2023/05/25 09:17:21;;;;;;;17.10;6.22;;;19.90;11.70;;;;;;6186290;23;20035;-87
2023/05/25 09:20:12;;;;;;;19.95;7.18;;;19.10;12.80;;;;;;6185303;23;20036;-86
2023/05/25 09:23:01;;;;;;;16.25;6.38;;;19.80;26.70;;;;;;6186094;23;20095;-89
2023/05/25 09:25:50;;;;;;;17.20;6.60;;;20.00;14.70;;;;;;6186068;23;20100;-87
2023/05/25 09:28:47;;;;;;;15.00;7.55;;;20.20;17.00;;;;;;6185066;23;20021;-88
2023/05/25 09:31:38;;;;;;;17.33;6.95;;;20.00;12.90;;;;;;6165028;23;20056;-88
2023/05/25 09:34:32;;;;;;;13.77;6.97;;;19.20;10.60;;;;;;6184796;23;20107;-86
2023/05/25 09:37:20;;;;;;;20.77;8.10;;;19.00;23.50;;;;;;6163925;23;20424;-91
2023/05/25 09:40:11;;;;;;;14.05;7.25;;;19.20;21.10;;;;;;6183482;23;20058;-87
2023/05/25 09:43:06;;;;;;;15.10;6.57;;;19.70;18.70;;;;;;6183551;23;20183;-87
2023/05/25 09:45:54;;;;;;;15.30;6.60;;;20.70;21.20;;;;;;6185783;23;20056;-87
2023/05/25 09:48:42;;;;;;;17.55;6.85;;;20.40;8.80;;;;;;6183588;23;20028;-87
2023/05/25 09:51:32;;;;;;;15.65;6.93;;;20.30;11.20;;;;;;6183156;23;20036;-88
2023/05/25 09:54:25;;;;;;;13.73;6.70;;;19.90;10.80;;;;;;6185058;23;20035;-90
2023/05/25 09:57:14;;;;;;;20.10;7.53;;;19.50;9.30;;;;;;6184562;23;20092;-87
2023/05/25 10:00:04;;;;;;;18.08;7.20;;;19.10;10.00;;;;;;6184190;23;20028;-89
2023/05/25 10:02:54;;;;;;;15.15;7.10;;;18.90;13.40;;;;;;6166015;23;20121;-87
2023/05/25 10:05:42;;;;;;;17.55;7.28;;;18.60;20.60;;;;;;6163978;23;20040;-88
2023/05/25 10:08:30;;;;;;;16.40;6.63;;;18.20;22.10;;;;;;6185017;23;20079;-85
2023/05/25 10:11:21;;;;;;;15.77;6.55;;;19.00;34.60;;;;;;6184683;23;20031;-90
2023/05/25 10:14:11;;;;;;;19.60;7.75;;;19.60;23.80;;;;;;6162556;23;20340;-90
2023/05/25 10:17:02;;;;;;;24.48;7.15;;;20.00;18.90;;;;;;6162393;23;20111;-86
2023/05/25 10:19:53;;;;;;;18.80;6.43;;;21.10;20.50;;;;;;6184521;23;20037;-87
2023/05/25 10:22:50;;;;;;;14.70;6.65;;;22.70;26.70;;;;;;6162060;23;20021;-88
2023/05/25 10:25:43;;;;;;;16.25;6.20;;;23.20;13.50;;;;;;6183067;23;20031;-88
2023/05/25 10:28:38;;;;;;;13.35;5.85;;;23.30;1.00;;;;;;6162648;23;20025;-87
2023/05/25 10:31:28;;;;;;;15.32;6.40;;;23.60;1.00;;;;;;6164457;23;20180;-84
2023/05/25 10:34:16;;;;;;;12.55;6.10;;;23.30;1.00;;;;;;6183587;23;20326;-86
2023/05/25 10:37:05;;;;;;;14.77;5.63;;;23.10;1.00;;;;;;6183290;23;20436;-86
2023/05/25 10:39:54;;;;;;;11.75;5.50;;;24.00;1.00;;;;;;6188275;23;20025;-88
2023/05/25 10:42:43;;;;;;;17.27;5.93;;;24.40;1.00;;;;;;6165477;23;20032;-87
2023/05/25 10:45:32;;;;;;;13.60;5.78;;;25.20;1.00;;;;;;6164734;23;20021;-87
2023/05/25 10:48:21;;;;;;;15.88;6.57;;;25.20;1.00;;;;;;6169452;23;20080;-90
2023/05/25 10:51:09;;;;;;;13.02;6.07;;;23.50;1.00;;;;;;6186320;23;20396;-87
2023/05/25 10:54:00;;;;;;;12.35;6.47;;;22.20;1.00;;;;;;6166095;23;20025;-87
2023/05/25 10:57:13;;;;;;;14.88;5.85;;;21.80;1.00;;;;;;6187750;23;20029;-91
2023/05/25 11:00:05;;;;;;;13.25;5.82;;;21.50;1.00;;;;;;6187246;23;20035;-90
2023/05/25 11:02:54;;;;;;;12.77;6.20;;;21.30;1.00;;;;;;6165255;23;20361;-90
2023/05/25 11:05:49;;;;;;;12.02;6.35;;;20.50;1.00;;;;;;6165731;23;20653;-87
2023/05/25 11:08:59;;;;;;;16.38;6.20;;;21.20;2.80;;;;;;6188444;23;20029;-90
2023/05/25 11:11:47;;;;;;;15.65;5.88;;;22.00;1.00;;;;;;6166885;23;20037;-87
2023/05/25 11:14:41;;;;;;;12.45;5.45;;;21.90;1.00;;;;;;6186491;23;20044;-86
2023/05/25 11:17:31;;;;;;;11.65;5.10;;;21.60;1.00;;;;;;6165715;23;20111;-86
2023/05/25 11:20:26;;;;;;;14.75;5.80;;;21.30;1.00;;;;;;6163334;23;20413;-86
2023/05/25 11:23:22;;;;;;;10.98;5.28;;;22.30;1.00;;;;;;6185895;23;20025;-88
2023/05/25 11:26:22;;;;;;;13.25;5.43;;;22.20;1.00;;;;;;6186886;23;20500;-87
2023/05/25 11:29:16;;;;;;;13.18;5.95;;;21.80;1.00;;;;;;6185988;23;20040;-87
2023/05/25 11:32:04;;;;;;;17.73;5.78;;;21.20;1.00;;;;;;6168374;23;20032;-89
2023/05/25 11:34:56;;;;;;;11.55;5.38;;;20.90;1.00;;;;;;6185443;23;20040;-92
2023/05/25 11:37:49;;;;;;;15.95;6.20;;;20.50;1.00;;;;;;6163833;23;20036;-89
2023/05/25 11:40:39;;;;;;;9.77;4.93;;;20.30;1.00;;;;;;6164146;23;20025;-89
2023/05/25 11:43:28;;;;;;;10.30;5.05;;;20.50;1.00;;;;;;6185008;23;20021;-87
2023/05/25 11:46:20;;;;;;;14.80;6.22;;;20.80;3.10;;;;;;6184138;23;20542;-86
2023/05/25 11:49:08;;;;;;;12.63;6.00;;;20.60;1.00;;;;;;6163879;23;20063;-88
2023/05/25 11:51:56;;;;;;;15.77;6.13;;;20.30;1.00;;;;;;6186019;23;20025;-85
2023/05/25 11:54:45;;;;;;;10.25;5.38;;;20.10;1.60;;;;;;6184489;23;20121;-86
2023/05/25 11:57:32;;;;;;;12.77;6.28;;;20.10;5.00;;;;;;6185711;23;20512;-88
2023/05/25 12:00:27;;;;;;;11.10;5.60;;;20.20;3.60;;;;;;6184134;23;20345;-89
2023/05/25 12:03:41;;;;;;;11.07;5.75;;;20.20;3.60;;;;;;6183696;23;20060;-87
2023/05/25 12:06:32;;;;;;;14.32;5.63;;;20.20;6.80;;;;;;6185408;23;20025;-86
2023/05/25 12:09:23;;;;;;;15.35;5.15;;;20.80;8.30;;;;;;6183413;23;20074;-86
2023/05/25 12:12:10;;;;;;;12.38;5.78;;;21.00;5.50;;;;;;6185847;23;20024;-85
2023/05/25 12:14:58;;;;;;;14.77;5.93;;;20.90;2.00;;;;;;6185622;23;20452;-86
2023/05/25 12:17:46;;;;;;;10.02;5.45;;;20.90;1.00;;;;;;6183295;23;20087;-86
2023/05/25 12:20:37;;;;;;;9.85;4.60;;;21.10;3.70;;;;;;6163599;23;20020;-86
2023/05/25 12:23:25;;;;;;;9.68;5.03;;;21.10;1.00;;;;;;6161875;23;20119;-86
2023/05/25 12:26:15;;;;;;;12.00;5.10;;;22.00;1.50;;;;;;6164280;23;20035;-87
2023/05/25 12:29:09;;;;;;;14.38;4.93;;;22.00;1.00;;;;;;6182432;23;20035;-87
2023/05/25 12:32:05;;;;;;;10.15;5.30;;;22.20;1.00;;;;;;6183926;23;20035;-89
2023/05/25 12:35:06;;;;;;;14.48;6.07;;;22.00;1.00;;;;;;6164437;23;20039;-88
2023/05/25 12:38:10;;;;;;;11.93;5.10;;;21.60;1.00;;;;;;6164670;23;20565;-86
2023/05/25 12:41:05;;;;;;;12.23;4.88;;;21.60;1.00;;;;;;6183880;23;20029;-85
2023/05/25 12:43:54;;;;;;;11.35;5.72;;;21.70;1.00;;;;;;6163439;23;20424;-90
2023/05/25 12:46:41;;;;;;;8.68;5.15;;;21.80;1.00;;;;;;6184320;23;20333;-88
2023/05/25 12:49:31;;;;;;;14.05;5.13;;;21.60;1.00;;;;;;6183455;23;20029;-85
2023/05/25 12:52:37;;;;;;;15.48;5.70;;;21.70;1.00;;;;;;6183698;23;20491;-86
2023/05/25 12:55:27;;;;;;;11.68;5.25;;;21.70;1.00;;;;;;6183655;23;20389;-85
2023/05/25 12:58:27;;;;;;;14.18;5.13;;;21.60;1.00;;;;;;6183649;23;20025;-84
2023/05/25 13:01:15;;;;;;;8.98;5.00;;;22.30;1.00;;;;;;6182485;23;20032;-86
2023/05/25 13:04:03;;;;;;;9.98;4.32;;;22.70;1.00;;;;;;6162099;23;20051;-87
2023/05/25 13:06:51;;;;;;;11.57;4.57;;;23.10;1.00;;;;;;6163865;23;20024;-88
2023/05/25 13:09:41;;;;;;;9.93;5.20;;;24.50;1.00;;;;;;6185949;23;20108;-88
2023/05/25 13:12:29;;;;;;;13.65;5.13;;;25.50;1.00;;;;;;6185520;23;20036;-87
2023/05/25 13:15:21;;;;;;;14.57;5.35;;;24.10;1.00;;;;;;6183723;23;20024;-85
2023/05/25 13:18:08;;;;;;;9.00;4.40;;;23.60;1.00;;;;;;6162263;23;20032;-85
2023/05/25 13:20:56;;;;;;;11.88;5.55;;;23.20;1.00;;;;;;6183549;23;20080;-89
2023/05/25 13:23:44;;;;;;;11.90;5.05;;;22.90;1.00;;;;;;6182637;23;20025;-88
2023/05/25 13:26:34;;;;;;;9.20;5.25;;;22.70;1.00;;;;;;6184679;23;20056;-86
2023/05/25 13:29:24;;;;;;;10.32;5.68;;;22.40;1.00;;;;;;6187314;23;20080;-87
2023/05/25 13:32:12;;;;;;;13.25;5.57;;;22.30;1.00;;;;;;6183491;23;20021;-87
2023/05/25 13:35:00;;;;;;;16.08;5.72;;;22.80;1.00;;;;;;6186749;23;20123;-83
2023/05/25 13:37:47;;;;;;;13.52;5.50;;;23.20;1.00;;;;;;6182998;23;20471;-87
2023/05/25 13:40:35;;;;;;;13.73;5.78;;;23.30;1.00;;;;;;6182036;23;20352;-87
2023/05/25 13:43:22;;;;;;;12.27;4.85;;;23.90;1.00;;;;;;6163711;23;20028;-87
2023/05/25 13:46:12;;;;;;;13.68;5.25;;;23.80;1.00;;;;;;6182876;23;20297;-85
2023/05/25 13:49:19;;;;;;;12.20;5.78;;;23.90;1.00;;;;;;6166053;23;20048;-87
2023/05/25 13:52:07;;;;;;;16.33;5.75;;;23.60;1.00;;;;;;6182808;23;20025;-87
2023/05/25 13:54:58;;;;;;;10.52;5.18;;;24.80;1.00;;;;;;6184947;23;20052;-88
2023/05/25 13:57:46;;;;;;;13.02;4.90;;;24.70;1.00;;;;;;6184398;23;20043;-88
2023/05/25 14:00:36;;;;;;;16.88;6.05;;;25.10;1.00;;;;;;6183231;23;20393;-88
2023/05/25 14:03:24;;;;;;;14.85;5.57;;;24.80;1.00;;;;;;6161572;23;20021;-88
2023/05/25 14:06:12;;;;;;;13.80;5.72;;;25.30;1.00;;;;;;6183669;23;20436;-87
2023/05/25 14:09:02;;;;;;;11.88;4.65;;;26.90;1.00;;;;;;6160490;23;20021;-86
2023/05/25 14:11:51;;;;;;;11.63;5.05;;;26.80;1.00;;;;;;6163684;23;20025;-87
2023/05/25 14:14:39;;;;;;;14.85;6.13;;;25.50;1.00;;;;;;6184661;23;20052;-87
2023/05/25 14:17:30;;;;;;;10.27;5.03;;;23.90;1.00;;;;;;6186964;23;20021;-88
2023/05/25 14:20:24;;;;;;;11.90;5.60;;;24.50;1.00;;;;;;6168233;23;20040;-90
2023/05/25 14:23:14;;;;;;;16.83;5.72;;;24.90;1.00;;;;;;6185637;23;20025;-86
2023/05/25 14:26:04;;;;;;;12.57;5.60;;;24.00;1.00;;;;;;6186418;23;20089;-88
2023/05/25 14:28:54;;;;;;;13.68;5.78;;;23.40;1.00;;;;;;6185421;23;20025;-88
2023/05/25 14:31:44;;;;;;;10.32;4.53;;;23.00;1.00;;;;;;6184636;23;20025;-87
2023/05/25 14:34:34;;;;;;;17.02;6.32;;;23.10;1.00;;;;;;6186890;23;20025;-88
2023/05/25 14:37:22;;;;;;;15.77;5.82;;;22.90;1.00;;;;;;6163470;23;20055;-85
2023/05/25 14:40:10;;;;;;;12.45;5.68;;;22.90;1.00;;;;;;6163358;23;20025;-88
2023/05/25 14:42:58;;;;;;;11.63;5.40;;;22.70;1.00;;;;;;6186234;23;20370;-87
2023/05/25 14:45:45;;;;;;;9.15;5.00;;;22.60;1.00;;;;;;6184640;23;20464;-88